createdAt,value
2022-10-15T00:00:52.171Z,98825.91
2022-10-15T00:03:19.319Z,98825.91
2022-10-15T00:05:46.375Z,98822.16
2022-10-15T00:08:13.951Z,98816.78
2022-10-15T00:10:41.109Z,98821.34
2022-10-15T00:13:08.183Z,98816.78
2022-10-15T00:15:36.659Z,98827.56
2022-10-15T00:18:03.705Z,98825.91
2022-10-15T00:20:31.657Z,98828.59
2022-10-15T00:22:58.720Z,98897.88
2022-10-15T00:25:25.980Z,99347.38
2022-10-15T00:27:53.071Z,99695.25
2022-10-15T00:30:20.288Z,99966.81
2022-10-15T00:32:47.321Z,100154.78
2022-10-15T00:35:14.537Z,100290.50
2022-10-15T00:37:44.023Z,100381.34
2022-10-15T00:40:12.233Z,100444.25
2022-10-15T00:42:39.310Z,100487.41
2022-10-15T00:45:09.971Z,100510.84
2022-10-15T00:47:48.970Z,100538.81
2022-10-15T00:50:26.148Z,100546.75
2022-10-15T00:52:58.399Z,100554.00
2022-10-15T00:55:28.587Z,100557.53
2022-10-15T00:57:55.978Z,100557.69
2022-10-15T01:00:23.188Z,100536.13
2022-10-15T01:02:50.261Z,100473.06
2022-10-15T01:05:18.007Z,100341.91
2022-10-15T01:07:45.030Z,100210.56
2022-10-15T01:10:14.484Z,100111.63
2022-10-15T01:12:44.523Z,100033.41
2022-10-15T01:15:18.699Z,99971.38
2022-10-15T01:17:47.957Z,99898.56
2022-10-15T01:20:23.046Z,99827.59
2022-10-15T01:22:59.636Z,99772.63
2022-10-15T01:25:41.275Z,99717.84
2022-10-15T01:28:25.376Z,99690.88
2022-10-15T01:31:09.150Z,99654.16
2022-10-15T01:33:36.242Z,99608.31
2022-10-15T01:36:33.156Z,99586.72
2022-10-15T01:39:04.868Z,99550.03
2022-10-15T01:41:44.199Z,99537.34
2022-10-15T01:44:20.819Z,99526.56
2022-10-15T01:47:19.371Z,99485.31
2022-10-15T01:49:49.196Z,99477.22
2022-10-15T01:52:26.270Z,99461.03
2022-10-15T01:54:54.138Z,99450.25
2022-10-15T01:57:24.884Z,99445.03
2022-10-15T01:59:52.686Z,99441.50
2022-10-15T02:02:21.796Z,99424.31
2022-10-15T02:04:48.970Z,99420.78
2022-10-15T02:07:24.154Z,99417.25
2022-10-15T02:09:54.035Z,99401.06
2022-10-15T02:12:34.198Z,99408.31
2022-10-15T02:15:10.756Z,99396.69
2022-10-15T02:17:43.343Z,99385.91
2022-10-15T02:20:14.297Z,99380.50
2022-10-15T02:22:46.531Z,99378.84
2022-10-15T02:25:18.523Z,99369.72
2022-10-15T02:27:48.238Z,99350.00
2022-10-15T02:30:15.593Z,99353.53
2022-10-15T02:32:43.804Z,99347.31
2022-10-15T02:35:12.138Z,99333.66
2022-10-15T02:37:44.424Z,99314.13
2022-10-15T02:40:12.340Z,99310.41
2022-10-15T02:42:39.847Z,99301.47
2022-10-15T02:45:08.495Z,99299.63
2022-10-15T02:47:35.530Z,99294.22
2022-10-15T02:50:03.900Z,99291.53
2022-10-15T02:52:31.005Z,99281.78
2022-10-15T02:58:03.149Z,99277.22
2022-10-15T03:00:31.500Z,99290.69
2022-10-15T03:02:58.663Z,99300.44
2022-10-15T03:05:26.001Z,99305.19
2022-10-15T03:07:54.894Z,99314.97
2022-10-15T03:10:22.327Z,99313.09
2022-10-15T03:12:49.392Z,99311.25
2022-10-15T03:15:16.817Z,99309.38
2022-10-15T03:17:46.140Z,99312.91
2022-10-15T03:20:16.085Z,99311.25
2022-10-15T03:22:43.473Z,99312.06
2022-10-15T03:25:10.848Z,99306.69
2022-10-15T03:27:38.507Z,99306.69
2022-10-15T03:30:15.978Z,99302.13
2022-10-15T03:35:15.226Z,99295.91
2022-10-15T03:37:42.370Z,99294.88
2022-10-15T03:40:13.618Z,99303.78
2022-10-15T03:42:41.913Z,99296.53
2022-10-15T03:45:10.688Z,99299.25
2022-10-15T03:47:39.307Z,99295.47
2022-10-15T03:50:07.593Z,99293.84
2022-10-15T03:52:35.977Z,99296.31
2022-10-15T03:55:03.618Z,99295.47
2022-10-15T03:57:32.446Z,99290.94
2022-10-15T04:00:05.241Z,99293.44
2022-10-15T04:02:39.294Z,99297.78
2022-10-15T04:05:11.278Z,99302.16
2022-10-15T04:07:48.658Z,99307.56
2022-10-15T04:10:19.949Z,99321.88
2022-10-15T04:12:47.104Z,99328.94
2022-10-15T04:15:16.589Z,99323.31
2022-10-15T04:17:53.952Z,99319.59
2022-10-15T04:20:21.713Z,99332.91
2022-10-15T04:22:49.503Z,99332.91
2022-10-15T04:25:17.170Z,99332.06
2022-10-15T04:27:45.081Z,99323.97
2022-10-15T04:30:15.946Z,99329.19
2022-10-15T04:32:51.406Z,99326.47
2022-10-15T04:35:18.821Z,99334.38
2022-10-15T04:38:06.131Z,99340.38
2022-10-15T04:41:04.441Z,99341.22
2022-10-15T04:43:48.060Z,99347.44
2022-10-15T04:46:15.168Z,99357.22
2022-10-15T04:48:43.363Z,99358.88
2022-10-15T04:51:14.546Z,99360.56
2022-10-15T04:54:01.717Z,99359.53
2022-10-15T04:56:30.304Z,99362.84
2022-10-15T04:58:57.492Z,99368.88
2022-10-15T05:01:27.764Z,99351.03
2022-10-15T05:04:12.209Z,99338.19
2022-10-15T05:06:40.549Z,99343.38
2022-10-15T05:09:17.786Z,99340.69
2022-10-15T05:11:49.569Z,99349.63
2022-10-15T05:14:16.715Z,99353.16
2022-10-15T05:16:51.537Z,99355.00
2022-10-15T05:19:18.880Z,99369.16
2022-10-15T05:24:24.741Z,99379.53
2022-10-15T05:27:01.769Z,99378.50
2022-10-15T05:29:31.902Z,99374.13
2022-10-15T05:31:59.808Z,99377.47
2022-10-15T05:34:30.445Z,99389.09
2022-10-15T05:37:04.774Z,99383.72
2022-10-15T05:39:32.326Z,99395.34
2022-10-15T05:42:00.085Z,99398.88
2022-10-15T05:44:37.733Z,99401.16
2022-10-15T05:47:04.954Z,99406.56
2022-10-15T05:49:33.385Z,99414.47
2022-10-15T05:52:17.274Z,99420.50
2022-10-15T05:55:04.655Z,99425.69
2022-10-15T05:57:31.728Z,99431.53
2022-10-15T06:00:01.149Z,99435.72
2022-10-15T06:02:28.770Z,99446.28
2022-10-15T06:04:56.337Z,99455.66
2022-10-15T06:07:23.736Z,99461.72
2022-10-15T06:09:51.703Z,99467.72
2022-10-15T06:12:19.047Z,99467.34
2022-10-15T06:14:46.156Z,99475.63
2022-10-15T06:17:13.217Z,99480.84
2022-10-15T06:19:42.573Z,99487.72
2022-10-15T06:22:10.364Z,99491.25
2022-10-15T06:24:37.534Z,99487.50
2022-10-15T06:27:09.933Z,99504.34
2022-10-15T06:29:37.028Z,99503.97
2022-10-15T06:32:04.334Z,99509.38
2022-10-15T06:34:31.369Z,99520.78
2022-10-15T06:36:58.395Z,99523.28
2022-10-15T06:39:25.436Z,99524.97
2022-10-15T06:41:52.511Z,99537.06
2022-10-15T06:44:19.561Z,99537.66
2022-10-15T06:46:46.612Z,99535.81
2022-10-15T06:49:13.686Z,99543.53
2022-10-15T06:51:43.106Z,99553.31
2022-10-15T06:54:10.198Z,99581.75
2022-10-15T06:56:37.357Z,99596.75
2022-10-15T06:59:05.472Z,99608.19
2022-10-15T07:01:32.494Z,99614.44
2022-10-15T07:03:59.552Z,99622.78
2022-10-15T07:06:26.651Z,99631.72
2022-10-15T07:08:53.735Z,99637.13
2022-10-15T07:11:20.857Z,99644.19
2022-10-15T07:13:47.918Z,99651.28
2022-10-15T07:16:15.009Z,99703.03
2022-10-15T07:18:42.075Z,100007.13
2022-10-15T07:23:42.362Z,100042.88
2022-10-15T07:26:09.496Z,100053.91
2022-10-15T07:28:36.797Z,100065.34
2022-10-15T07:31:04.990Z,100074.28
2022-10-15T07:33:34.320Z,100079.50
2022-10-15T07:36:08.362Z,100087.44
2022-10-15T07:38:35.718Z,100113.44
2022-10-15T07:41:03.975Z,100155.84
2022-10-15T07:43:32.964Z,100217.81
2022-10-15T07:46:00.504Z,100291.63
2022-10-15T07:48:27.598Z,100326.53
2022-10-15T07:50:55.756Z,100349.00
2022-10-15T07:53:23.259Z,100500.47
2022-10-15T07:55:58.101Z,100939.22
2022-10-15T07:58:26.451Z,101242.88
2022-10-15T08:00:53.559Z,101459.53
2022-10-15T08:03:20.683Z,101612.69
2022-10-15T08:05:47.976Z,101733.25
2022-10-15T08:08:14.997Z,101822.34
2022-10-15T08:10:42.037Z,101872.88
2022-10-15T08:13:09.268Z,101977.91
2022-10-15T08:15:38.759Z,102040.97
2022-10-15T08:18:06.047Z,102066.19
2022-10-15T08:20:33.262Z,102000.56
2022-10-15T08:23:00.942Z,101925.81
2022-10-15T08:25:28.053Z,101867.16
2022-10-15T08:27:56.331Z,101834.69
2022-10-15T08:30:23.467Z,101804.00
2022-10-15T08:32:50.482Z,101804.44
2022-10-15T08:35:17.553Z,101835.00
2022-10-15T08:37:44.647Z,101936.59
2022-10-15T08:40:12.745Z,102008.41
2022-10-15T08:42:41.836Z,102018.91
2022-10-15T08:45:19.588Z,101983.88
2022-10-15T08:47:49.117Z,101936.31
2022-10-15T08:50:25.563Z,101893.00
2022-10-15T08:52:54.592Z,101857.38
2022-10-15T08:57:56.151Z,101799.69
2022-10-15T09:00:24.593Z,101763.97
2022-10-15T09:02:59.018Z,101719.81
2022-10-15T09:05:32.070Z,101688.72
2022-10-15T09:08:17.230Z,101652.53
2022-10-15T09:10:49.967Z,101621.00
2022-10-15T09:13:24.228Z,101578.53
2022-10-15T09:15:54.072Z,101541.66
2022-10-15T09:18:23.522Z,101513.25
2022-10-15T09:20:51.111Z,101683.19
2022-10-15T09:23:20.205Z,101767.81
2022-10-15T09:25:59.521Z,101702.81
2022-10-15T09:28:34.693Z,101760.09
2022-10-15T09:31:01.804Z,101915.13
2022-10-15T09:33:45.405Z,102027.28
2022-10-15T09:36:15.488Z,102152.56
2022-10-15T09:38:54.120Z,102254.97
2022-10-15T09:41:39.573Z,102268.38
2022-10-15T09:44:12.152Z,102270.25
2022-10-15T09:46:44.679Z,102174.25
2022-10-15T09:49:22.295Z,102034.97
2022-10-15T09:51:57.033Z,101962.41
2022-10-15T09:54:33.198Z,101880.41
2022-10-15T09:57:00.560Z,101794.31
2022-10-15T09:59:28.167Z,101723.88
2022-10-15T10:01:58.551Z,101657.53
2022-10-15T10:04:27.307Z,101615.25
2022-10-15T10:06:55.720Z,101560.22
2022-10-15T10:09:24.780Z,101492.34
2022-10-15T10:11:53.445Z,101403.97
2022-10-15T10:14:31.652Z,100990.28
2022-10-15T10:17:04.891Z,100842.81
2022-10-15T10:19:31.974Z,100675.22
2022-10-15T10:22:12.673Z,100580.56
2022-10-15T10:24:42.852Z,100354.94
2022-10-15T10:27:24.504Z,100301.66
2022-10-15T10:29:54.793Z,100256.50
2022-10-15T10:32:26.741Z,100206.09
2022-10-15T10:34:54.345Z,100171.16
2022-10-15T10:37:21.823Z,100136.81
2022-10-15T10:39:53.288Z,100092.59
2022-10-15T10:42:20.804Z,100090.78
2022-10-15T10:44:48.176Z,100350.72
2022-10-15T10:47:16.546Z,100497.00
2022-10-15T10:49:48.502Z,100521.59
2022-10-15T10:52:35.367Z,100502.34
2022-10-15T10:55:05.214Z,100442.69
2022-10-15T10:57:35.739Z,100375.09
2022-10-15T11:00:04.781Z,100316.66
2022-10-15T11:02:32.702Z,100240.66
2022-10-15T11:04:59.757Z,100169.34
2022-10-15T11:07:32.865Z,100104.31
2022-10-15T11:10:04.051Z,100036.97
2022-10-15T11:13:00.735Z,99966.22
2022-10-15T11:15:33.953Z,99890.75
2022-10-15T11:18:16.455Z,99831.75
2022-10-15T11:20:57.888Z,99766.03
2022-10-15T11:23:45.247Z,99704.09
2022-10-15T11:26:41.444Z,99641.94
2022-10-15T11:29:21.291Z,99590.03
2022-10-15T11:32:14.585Z,99575.63
2022-10-15T11:34:45.625Z,99527.88
2022-10-15T11:37:26.456Z,99501.59
2022-10-15T11:40:11.764Z,99473.03
2022-10-15T11:42:55.757Z,99430.69
2022-10-15T11:45:33.788Z,99404.41
2022-10-15T11:48:07.178Z,99387.72
2022-10-15T11:50:41.805Z,99365.88
2022-10-15T11:53:08.924Z,99337.31
2022-10-15T11:55:44.630Z,99328.75
2022-10-15T11:58:14.923Z,99303.56
2022-10-15T12:00:49.535Z,99286.72
2022-10-15T12:03:25.933Z,99264.50
2022-10-15T12:05:55.713Z,99248.03
2022-10-15T12:08:24.105Z,99232.63
2022-10-15T12:11:10.122Z,99227.00
2022-10-15T12:13:39.086Z,99209.91
2022-10-15T12:16:16.510Z,99221.13
2022-10-15T12:18:48.325Z,99198.28
2022-10-15T12:21:30.185Z,99192.03
2022-10-15T12:23:57.434Z,99180.53
2022-10-15T12:26:24.499Z,99188.66
2022-10-15T12:28:59.422Z,99189.28
2022-10-15T12:31:48.161Z,99188.38
2022-10-15T12:34:29.419Z,99183.84
2022-10-15T12:37:01.280Z,99187.78
2022-10-15T12:42:29.579Z,99188.97
2022-10-15T12:44:58.415Z,99190.78
2022-10-15T12:47:44.464Z,99200.56
2022-10-15T12:50:37.910Z,99207.97
2022-10-15T12:53:07.114Z,99219.22
2022-10-15T12:55:35.785Z,99225.91
2022-10-15T12:58:04.923Z,99205.78
2022-10-15T13:00:36.777Z,99203.97
2022-10-15T13:03:19.255Z,99203.84
2022-10-15T13:05:47.914Z,99198.31
2022-10-15T13:08:25.040Z,99216.16
2022-10-15T13:10:57.852Z,99243.41
2022-10-15T13:13:27.737Z,99222.22
2022-10-15T13:16:15.105Z,99192.81
2022-10-15T13:18:47.990Z,99150.06
2022-10-15T13:21:15.057Z,99144.03
2022-10-15T13:23:46.443Z,99137.28
2022-10-15T13:26:13.517Z,99133.94
2022-10-15T13:28:42.070Z,99132.19
2022-10-15T13:31:27.467Z,99119.25
2022-10-15T13:34:04.613Z,99110.66
2022-10-15T13:36:33.336Z,99111.31
2022-10-15T13:39:03.289Z,99116.38
2022-10-15T13:41:33.081Z,99108.84
2022-10-15T13:44:01.120Z,99101.63
2022-10-15T13:46:29.816Z,99095.84
2022-10-15T13:48:58.028Z,99084.25
2022-10-15T13:51:28.537Z,99077.25
2022-10-15T13:53:55.816Z,99081.81
2022-10-15T13:56:22.951Z,99083.34
2022-10-15T13:58:50.156Z,99081.47
2022-10-15T14:01:18.160Z,99075.06
2022-10-15T14:03:52.676Z,99075.63
2022-10-15T14:06:32.014Z,99072.94
2022-10-15T14:09:00.636Z,99068.50
2022-10-15T14:11:28.925Z,99077.03
2022-10-15T14:13:57.043Z,99084.47
2022-10-15T14:16:33.087Z,99077.78
2022-10-15T14:19:09.083Z,99071.16
2022-10-15T14:21:36.643Z,99072.66
2022-10-15T14:24:07.547Z,99073.69
2022-10-15T14:26:35.092Z,99071.81
2022-10-15T14:29:02.502Z,99081.59
2022-10-15T14:31:31.560Z,99083.41
2022-10-15T14:33:58.681Z,99090.06
2022-10-15T14:36:27.876Z,99088.63
2022-10-15T14:38:55.575Z,99087.56
2022-10-15T14:41:32.518Z,99094.66
2022-10-15T14:44:18.498Z,99089.25
2022-10-15T14:46:47.494Z,99085.03
2022-10-15T14:49:20.745Z,99090.59
2022-10-15T14:51:59.723Z,99089.78
2022-10-15T14:54:31.378Z,99093.31
2022-10-15T16:22:28.208Z,99035.31
2022-10-15T16:24:55.366Z,99062.59
2022-10-15T16:27:22.668Z,99074.47
2022-10-15T16:29:50.054Z,99088.00
2022-10-15T16:32:17.164Z,99075.53
2022-10-15T16:34:44.266Z,99095.31
2022-10-15T16:37:11.338Z,99092.81
2022-10-15T16:39:38.382Z,99103.44
2022-10-15T16:42:05.647Z,99113.88
2022-10-15T16:44:32.727Z,99119.31
2022-10-15T16:46:59.772Z,99124.72
2022-10-15T16:49:27.115Z,99139.31
2022-10-15T16:51:54.167Z,99146.59
2022-10-15T16:54:21.635Z,99143.25
2022-10-15T16:56:52.011Z,99149.72
2022-10-15T16:59:20.414Z,99142.94
2022-10-15T17:01:47.745Z,99150.81
2022-10-15T17:04:14.881Z,99154.13
2022-10-15T17:06:41.955Z,99159.56
2022-10-15T17:09:09.157Z,99157.69
2022-10-15T17:11:40.440Z,99164.97
2022-10-15T17:14:09.369Z,99163.09
2022-10-15T17:16:37.776Z,99166.63
2022-10-15T17:19:05.349Z,99158.72
2022-10-15T17:21:32.502Z,99165.19
2022-10-15T17:24:01.041Z,99163.75
2022-10-15T17:26:29.701Z,99159.38
2022-10-15T17:28:56.748Z,99156.06
2022-10-15T17:31:25.199Z,99158.97
2022-10-15T17:34:00.756Z,99159.81
2022-10-15T17:36:29.754Z,99161.47
2022-10-15T17:38:57.361Z,99160.63
2022-10-15T17:41:25.847Z,99161.69
2022-10-15T17:43:52.937Z,99168.97
2022-10-15T17:46:24.087Z,99169.41
2022-10-15T17:48:51.921Z,99174.81
2022-10-15T17:51:20.528Z,99172.31
2022-10-15T17:53:50.723Z,99174.00
2022-10-15T17:56:17.766Z,99176.91
2022-10-15T17:58:46.148Z,99179.81
2022-10-15T18:01:28.068Z,99170.03
2022-10-15T18:04:06.820Z,99162.75
2022-10-15T18:06:33.925Z,99173.00
2022-10-15T18:09:01.063Z,99177.31
2022-10-15T18:11:30.092Z,99178.56
2022-10-15T18:13:57.261Z,99184.00
2022-10-15T18:16:24.656Z,99185.88
2022-10-15T18:18:52.676Z,99179.81
2022-10-15T18:21:20.512Z,99183.56
2022-10-15T18:23:47.733Z,99182.94
2022-10-15T18:26:20.809Z,99179.66
2022-10-15T18:28:49.174Z,99182.16
2022-10-15T18:31:16.397Z,99184.22
2022-10-15T18:33:44.418Z,99182.78
2022-10-15T18:36:16.000Z,99183.22
2022-10-15T18:38:43.547Z,99175.31
2022-10-15T18:41:13.470Z,99184.47
2022-10-15T18:43:40.606Z,99185.50
2022-10-15T18:46:08.172Z,99185.72
2022-10-15T18:48:36.640Z,99186.53
2022-10-15T18:51:10.040Z,99182.19
2022-10-15T18:53:37.973Z,99177.81
2022-10-15T18:56:05.896Z,99185.13
2022-10-15T18:58:33.051Z,99175.34
2022-10-15T19:01:10.595Z,99187.00
2022-10-15T19:03:37.687Z,99186.56
2022-10-15T19:06:06.239Z,99179.50
2022-10-15T19:08:34.058Z,99188.66
2022-10-15T19:11:08.632Z,99182.41
2022-10-15T19:13:36.716Z,99190.31
2022-10-15T19:16:04.544Z,99203.84
2022-10-15T19:18:31.964Z,99196.75
2022-10-15T19:20:59.060Z,99192.44
2022-10-15T19:23:26.279Z,99192.44
2022-10-15T19:25:53.426Z,99177.03
2022-10-15T19:28:20.522Z,99169.56
2022-10-15T19:30:59.609Z,99165.41
2022-10-15T19:33:27.235Z,99172.09
2022-10-15T19:35:55.797Z,99171.44
2022-10-15T19:38:23.055Z,99171.03
2022-10-15T19:40:50.529Z,99179.16
2022-10-15T19:43:19.036Z,99178.34
2022-10-15T19:45:46.338Z,99173.97
2022-10-15T19:48:14.894Z,99165.03
2022-10-15T19:50:42.937Z,99173.34
2022-10-15T19:53:11.783Z,99182.50
2022-10-15T19:55:39.807Z,99180.00
2022-10-15T19:58:07.574Z,99185.41
2022-10-15T20:00:34.894Z,99179.41
2022-10-15T20:03:02.287Z,99176.69
2022-10-15T20:05:29.375Z,99180.44
2022-10-15T20:07:56.439Z,99181.47
2022-10-15T20:10:25.900Z,99187.50
2022-10-15T20:12:53.765Z,99189.38
2022-10-15T20:15:20.994Z,99181.28
2022-10-15T20:17:48.155Z,99194.56
2022-10-15T20:20:15.455Z,99199.97
2022-10-15T20:22:42.566Z,99198.91
2022-10-15T20:25:09.940Z,99198.72
2022-10-15T20:27:37.045Z,99203.09
2022-10-15T20:30:05.019Z,99205.78
2022-10-15T20:32:35.326Z,99202.06
2022-10-15T20:35:04.032Z,99202.88
2022-10-15T20:37:31.143Z,99209.13
2022-10-15T20:39:59.823Z,99218.28
2022-10-15T20:42:27.799Z,99222.84
2022-10-15T20:44:55.132Z,99218.47
2022-10-15T20:47:23.917Z,99222.84
2022-10-15T20:49:52.236Z,99216.63
2022-10-15T20:52:22.767Z,99210.38
2022-10-15T20:54:50.721Z,99210.38
2022-10-15T20:57:17.926Z,99214.94
2022-10-15T20:59:45.004Z,99209.75
2022-10-15T21:02:12.092Z,99212.25
2022-10-15T21:04:39.086Z,99207.88
2022-10-15T21:07:06.313Z,99196.22
2022-10-15T21:09:33.354Z,99210.78
2022-10-15T21:12:00.479Z,99216.19
2022-10-15T21:14:27.566Z,99209.16
2022-10-15T21:16:54.616Z,99215.34
2022-10-15T21:19:21.678Z,99214.56
2022-10-15T21:21:48.720Z,99218.28
2022-10-15T21:24:15.883Z,99219.13
2022-10-15T21:26:43.042Z,99217.25
2022-10-15T21:29:15.204Z,99214.56
2022-10-15T21:31:43.277Z,99214.56
2022-10-15T21:34:10.293Z,99217.25
2022-10-15T21:36:37.421Z,99220.16
2022-10-15T21:39:06.671Z,99219.34
2022-10-15T21:41:35.105Z,99216.63
2022-10-15T21:44:03.187Z,99224.75
2022-10-15T21:46:33.300Z,99225.78
2022-10-15T21:49:01.083Z,99225.78
2022-10-15T21:51:29.572Z,99224.09
2022-10-15T21:53:59.302Z,99225.16
2022-10-15T21:56:26.487Z,99217.03
2022-10-15T21:58:54.640Z,99218.06
2022-10-15T22:01:31.124Z,99222.66
2022-10-15T22:03:59.512Z,99231.59
2022-10-15T22:06:27.113Z,99239.69
2022-10-15T22:08:54.881Z,99240.78
2022-10-15T22:11:23.671Z,99235.34
2022-10-15T22:13:55.322Z,99232.66
2022-10-15T22:16:23.312Z,99232.84
2022-10-15T22:18:50.802Z,99224.94
2022-10-15T22:21:19.248Z,99230.38
2022-10-15T22:23:48.187Z,99227.66
2022-10-15T22:26:15.852Z,99220.59
2022-10-15T22:28:43.367Z,99221.63
2022-10-15T22:31:11.882Z,99220.78
2022-10-15T22:33:40.634Z,99219.13
2022-10-15T22:36:13.281Z,99223.72
2022-10-15T22:38:41.006Z,99211.25
2022-10-15T22:41:09.788Z,99219.75
2022-10-15T22:43:37.276Z,99220.78
2022-10-15T22:46:04.346Z,99208.31
2022-10-15T22:48:38.822Z,99198.53
2022-10-15T22:51:07.544Z,99198.53
2022-10-15T22:53:34.668Z,99201.25
2022-10-15T22:56:02.783Z,99206.66
2022-10-15T22:58:30.812Z,99207.91
2022-10-15T23:01:06.763Z,99211.66
2022-10-15T23:03:33.939Z,99205.41
2022-10-15T23:06:01.027Z,99203.75
2022-10-15T23:08:28.075Z,99195.84
2022-10-15T23:10:55.215Z,99195.84
2022-10-15T23:13:22.336Z,99194.22
2022-10-15T23:15:49.442Z,99195.25
2022-10-15T23:18:16.462Z,99186.31
2022-10-15T23:20:43.520Z,99175.50
2022-10-15T23:23:10.672Z,99174.66
2022-10-15T23:25:38.404Z,99179.22
2022-10-15T23:28:05.795Z,99179.22
2022-10-15T23:30:32.843Z,99168.81
2022-10-15T23:33:01.410Z,99180.47
2022-10-15T23:35:28.614Z,99179.63
2022-10-15T23:37:55.794Z,99181.75
2022-10-15T23:40:22.838Z,99181.75
2022-10-15T23:42:49.925Z,99181.75
2022-10-15T23:45:17.032Z,99174.66
2022-10-15T23:47:44.050Z,99180.91
2022-10-15T23:50:11.089Z,99180.91
2022-10-15T23:52:38.156Z,99178.41
2022-10-15T23:55:05.253Z,99179.25
2022-10-15T23:57:32.287Z,99174.66
2022-10-15T23:59:59.971Z,99174.66
